Clinton, Montana
Current Conditions -  °F | °C
As of 5:53 PM on Monday 20 Oct 2014 (Local Time) from KMSO Reporting Station
Scattered Clouds Scattered Clouds  
Wind Chill: 64°   Ceiling: Unl
Heat Index: 64°   Visibility: 10mi
Dew Point: 39°   Wind: 6mph
Humidity: 40%   Direction: 280°W
Pressure: 29.72"   Gusts: NA
Location:  46.77°N, 113.72°W
Report Text: KMSO 202353Z 28005KT 10SM SCT120 18/04 A2972 RMK AO2 SLP068 T01780039 10211 20106 56017
Loading
Personal Weather Stations






























Interactive Weather Map
Tropical Storm Tracking
New forecast layout! Learn more

10-Day Weather Forecast

Advertisements
Track Severe Weather on mobile